Time;durP1;ratioP1;P1;durP2;ratioP2;P2;SDS_P1;SDS_P2;PMS_P1;PMS_P2;Temp;Humidity;BMP_temperature;BMP_pressure;BME280_temperature;BME280_humidity;BME280_pressure;Samples;Min_cycle;Max_cycle;Signal;HPM_P1;HPM_P2
2023/10/23 00:00:06;;;;;;;1999.90;999.90;;;8.00;99.90;;;;;;5049414;28;20078;-66
2023/10/23 00:02:31;;;;;;;1999.90;999.90;;;8.10;99.90;;;;;;5046457;28;20025;-66
2023/10/23 00:04:58;;;;;;;1999.90;999.90;;;8.10;99.90;;;;;;5053360;28;20430;-79
2023/10/23 00:07:24;;;;;;;1999.90;999.90;;;8.10;99.90;;;;;;5047389;28;20120;-66
2023/10/23 00:09:49;;;;;;;1999.90;999.90;;;8.10;99.90;;;;;;5050438;28;20108;-66
2023/10/23 00:12:15;;;;;;;1999.90;999.90;;;8.10;99.90;;;;;;5049312;28;20087;-66
2023/10/23 00:14:41;;;;;;;1999.90;999.90;;;8.10;99.90;;;;;;5051230;28;20077;-66
2023/10/23 00:17:07;;;;;;;1999.90;999.90;;;8.10;99.90;;;;;;5051373;28;20475;-66
2023/10/23 00:19:32;;;;;;;1999.90;999.90;;;8.00;99.90;;;;;;5048379;28;20029;-66
2023/10/23 00:21:58;;;;;;;1999.90;999.90;;;8.00;99.90;;;;;;5052239;28;20053;-66
2023/10/23 00:24:24;;;;;;;1999.90;999.90;;;8.00;99.90;;;;;;5049309;28;20029;-67
2023/10/23 00:26:49;;;;;;;1999.90;999.90;;;8.00;99.90;;;;;;5047428;28;20075;-66
2023/10/23 00:29:15;;;;;;;1999.90;999.90;;;8.00;99.90;;;;;;5053103;28;20032;-66
2023/10/23 00:31:41;;;;;;;1999.90;999.90;;;8.00;99.90;;;;;;5053952;28;20052;-68
2023/10/23 00:34:06;;;;;;;1999.90;999.90;;;7.90;99.90;;;;;;5054681;28;20108;-67
2023/10/23 00:36:32;;;;;;;1999.90;999.90;;;7.90;99.90;;;;;;5053863;28;20029;-66
2023/10/23 00:38:58;;;;;;;1999.90;999.90;;;7.90;99.90;;;;;;5056098;28;20033;-66
2023/10/23 00:41:24;;;;;;;1999.90;999.90;;;7.90;99.90;;;;;;5053839;28;20024;-67
2023/10/23 00:43:50;;;;;;;1999.90;999.90;;;7.90;99.90;;;;;;5051252;28;20082;-66
2023/10/23 00:46:19;;;;;;;1999.90;999.90;;;8.00;99.90;;;;;;5055050;28;20364;-67
2023/10/23 00:48:47;;;;;;;1999.90;999.90;;;7.90;99.90;;;;;;5042636;28;20074;-66
2023/10/23 00:51:16;;;;;;;1999.90;999.90;;;7.90;99.90;;;;;;5043603;28;20041;-66
2023/10/23 00:53:43;;;;;;;1999.90;999.90;;;7.90;99.90;;;;;;5056409;28;20033;-66
2023/10/23 00:56:10;;;;;;;1999.90;999.90;;;7.90;99.90;;;;;;5050556;28;20033;-68
2023/10/23 00:58:41;;;;;;;1999.90;999.90;;;7.90;99.90;;;;;;5052965;28;20043;-66
2023/10/23 01:01:11;;;;;;;1999.90;999.90;;;7.90;99.90;;;;;;5054352;28;20060;-66
2023/10/23 01:03:38;;;;;;;1999.90;999.90;;;7.90;99.90;;;;;;5050500;28;20032;-76
2023/10/23 01:06:04;;;;;;;1999.90;999.90;;;7.90;99.90;;;;;;5054637;28;20041;-67
2023/10/23 01:08:30;;;;;;;1999.90;999.90;;;7.80;99.90;;;;;;5054856;28;20032;-66
2023/10/23 01:10:56;;;;;;;1999.90;999.90;;;7.80;99.90;;;;;;5056699;28;20491;-66
2023/10/23 01:13:22;;;;;;;1999.90;999.90;;;7.80;99.90;;;;;;5055103;28;20040;-66
2023/10/23 01:15:48;;;;;;;1999.90;999.90;;;7.80;99.90;;;;;;5055720;28;20029;-67
2023/10/23 01:18:13;;;;;;;1999.90;999.90;;;7.70;99.90;;;;;;5053241;28;20025;-66
2023/10/23 01:20:40;;;;;;;1999.90;999.90;;;7.70;99.90;;;;;;5051739;28;20031;-66
2023/10/23 01:23:07;;;;;;;1999.90;999.90;;;7.80;99.90;;;;;;5052832;28;20025;-67
2023/10/23 01:25:33;;;;;;;1999.90;999.90;;;7.80;99.90;;;;;;5055502;28;20115;-66
2023/10/23 01:27:59;;;;;;;1999.90;999.90;;;7.70;99.90;;;;;;5055394;28;20369;-69
2023/10/23 01:30:25;;;;;;;1999.90;999.90;;;7.60;99.90;;;;;;5055730;28;20029;-68
2023/10/23 01:32:50;;;;;;;1999.90;999.90;;;7.60;99.90;;;;;;5055655;28;20025;-67
2023/10/23 01:35:16;;;;;;;1999.90;999.90;;;7.60;99.90;;;;;;5052596;28;20028;-67
2023/10/23 01:37:42;;;;;;;1999.90;999.90;;;7.60;99.90;;;;;;5052725;28;20109;-67
2023/10/23 01:40:09;;;;;;;1999.90;999.90;;;7.70;99.90;;;;;;5056500;28;20249;-67
2023/10/23 01:42:34;;;;;;;1999.90;999.90;;;7.70;99.90;;;;;;5055959;28;20063;-67
2023/10/23 01:45:00;;;;;;;1999.90;999.90;;;7.70;99.90;;;;;;5055374;28;20074;-67
2023/10/23 01:47:27;;;;;;;1999.90;999.90;;;7.70;99.90;;;;;;5051543;28;20032;-78
2023/10/23 01:49:53;;;;;;;1999.90;999.90;;;7.80;99.90;;;;;;5048478;28;20053;-67
2023/10/23 01:52:19;;;;;;;1999.90;999.90;;;7.90;99.90;;;;;;5055962;28;20078;-66
2023/10/23 01:54:45;;;;;;;1999.90;999.90;;;7.90;99.90;;;;;;5050058;28;20033;-66
2023/10/23 01:57:14;;;;;;;1999.90;999.90;;;8.00;99.90;;;;;;5044279;28;20388;-67
2023/10/23 01:59:40;;;;;;;1999.90;999.90;;;8.10;99.90;;;;;;5053947;28;20423;-67
2023/10/23 02:02:06;;;;;;;1999.90;999.90;;;8.10;99.90;;;;;;5055207;28;20146;-66
2023/10/23 02:04:34;;;;;;;1999.90;999.90;;;8.00;99.90;;;;;;5047324;28;20033;-67
2023/10/23 02:07:00;;;;;;;1999.90;999.90;;;8.00;99.90;;;;;;5038309;28;20034;-78
2023/10/23 02:09:26;;;;;;;1999.90;999.90;;;8.10;99.90;;;;;;5050443;28;20148;-67
2023/10/23 02:11:52;;;;;;;1999.90;999.90;;;8.10;99.90;;;;;;5055490;28;20112;-66
2023/10/23 02:14:17;;;;;;;1999.90;999.90;;;8.10;99.90;;;;;;5048451;28;20037;-67
2023/10/23 02:16:43;;;;;;;1999.90;999.90;;;8.10;99.90;;;;;;5054222;28;20026;-67
2023/10/23 02:19:09;;;;;;;1999.90;999.90;;;8.10;99.90;;;;;;5054657;28;20021;-67
2023/10/23 02:21:35;;;;;;;1999.90;999.90;;;8.00;99.90;;;;;;5055352;28;20025;-67
2023/10/23 02:24:01;;;;;;;1999.90;999.90;;;8.00;99.90;;;;;;5054599;28;20586;-67
2023/10/23 02:26:28;;;;;;;1999.90;999.90;;;8.00;99.90;;;;;;5054068;28;20037;-67
2023/10/23 02:28:54;;;;;;;1999.90;999.90;;;7.90;99.90;;;;;;5054633;28;20021;-66
2023/10/23 02:31:20;;;;;;;1999.90;999.90;;;7.90;99.90;;;;;;5053276;28;20032;-66
2023/10/23 02:33:46;;;;;;;1999.90;999.90;;;7.90;99.90;;;;;;5055149;28;20106;-78
2023/10/23 02:36:12;;;;;;;1999.90;999.90;;;7.80;99.90;;;;;;5053835;28;20021;-67
2023/10/23 02:38:37;;;;;;;1999.90;999.90;;;7.80;99.90;;;;;;5053637;28;20059;-67
2023/10/23 02:41:03;;;;;;;1999.90;999.90;;;7.70;99.90;;;;;;5051984;28;20289;-67
2023/10/23 02:43:29;;;;;;;1999.90;999.90;;;7.60;99.90;;;;;;5054701;28;20047;-67
2023/10/23 02:45:59;;;;;;;1999.90;999.90;;;7.60;99.90;;;;;;5054870;28;20044;-67
2023/10/23 02:48:25;;;;;;;1999.90;999.90;;;7.60;99.90;;;;;;5046775;28;20047;-67
2023/10/23 02:50:57;;;;;;;1999.90;999.90;;;7.60;99.90;;;;;;5054215;28;20364;-68
2023/10/23 02:53:24;;;;;;;1999.90;999.90;;;7.60;99.90;;;;;;5051517;28;20103;-67
2023/10/23 02:55:51;;;;;;;1999.90;999.90;;;7.60;99.90;;;;;;5051079;28;20330;-66
2023/10/23 02:58:17;;;;;;;1999.90;999.90;;;7.70;99.90;;;;;;5051170;28;20036;-77
2023/10/23 03:00:43;;;;;;;1999.90;999.90;;;7.60;99.90;;;;;;5054541;28;20061;-66
2023/10/23 03:03:10;;;;;;;1999.90;999.90;;;7.60;99.90;;;;;;5053903;28;20032;-67
2023/10/23 03:05:36;;;;;;;1999.90;999.90;;;7.40;99.90;;;;;;5054759;28;20040;-67
2023/10/23 03:08:02;;;;;;;1999.90;999.90;;;7.30;99.90;;;;;;5052564;28;20033;-67
2023/10/23 03:10:29;;;;;;;1999.90;999.90;;;7.30;99.90;;;;;;5054561;28;20443;-67
2023/10/23 03:12:54;;;;;;;1999.90;999.90;;;7.30;99.90;;;;;;5054058;28;20477;-67
2023/10/23 03:15:20;;;;;;;1999.90;999.90;;;7.20;99.90;;;;;;5050185;28;20057;-67
2023/10/23 03:17:46;;;;;;;1999.90;999.90;;;7.20;99.90;;;;;;5052602;28;20127;-67
2023/10/23 03:20:11;;;;;;;1999.90;999.90;;;7.20;99.90;;;;;;5051205;28;20399;-67
2023/10/23 03:22:38;;;;;;;1999.90;999.90;;;7.30;99.90;;;;;;5054239;28;20083;-67
2023/10/23 03:25:07;;;;;;;1999.90;999.90;;;7.30;99.90;;;;;;5052794;28;20372;-67
2023/10/23 03:27:33;;;;;;;1999.90;999.90;;;7.30;99.90;;;;;;5048597;28;20029;-67
2023/10/23 03:29:59;;;;;;;1999.90;999.90;;;7.20;99.90;;;;;;5053676;28;20039;-67
2023/10/23 03:32:25;;;;;;;1999.90;999.90;;;7.10;99.90;;;;;;5053403;28;20048;-67
2023/10/23 03:34:51;;;;;;;1999.90;999.90;;;7.00;99.90;;;;;;5044728;28;20369;-67
2023/10/23 03:37:17;;;;;;;1999.90;999.90;;;6.90;99.90;;;;;;5041415;28;20033;-67
2023/10/23 03:39:43;;;;;;;1999.90;999.90;;;6.90;99.90;;;;;;5050871;28;20030;-67
2023/10/23 03:42:09;;;;;;;1999.90;999.90;;;6.80;99.90;;;;;;5037434;28;20021;-68
2023/10/23 03:44:35;;;;;;;1999.90;999.90;;;6.80;99.90;;;;;;5045939;28;20132;-67
2023/10/23 03:47:01;;;;;;;1999.90;999.90;;;6.90;99.90;;;;;;5043288;28;20065;-67
2023/10/23 03:49:30;;;;;;;1999.90;999.90;;;7.00;99.90;;;;;;5047008;28;20072;-76
2023/10/23 03:51:56;;;;;;;1999.90;999.90;;;7.00;99.90;;;;;;5045449;28;20025;-67
2023/10/23 03:54:22;;;;;;;1999.90;999.90;;;6.90;99.90;;;;;;5037296;28;20435;-67
2023/10/23 03:56:48;;;;;;;1999.90;999.90;;;6.90;99.90;;;;;;5036667;28;20416;-67
2023/10/23 03:59:13;;;;;;;1999.90;999.90;;;6.90;99.90;;;;;;5045738;28;20025;-67
2023/10/23 04:01:39;;;;;;;1999.90;999.90;;;6.80;99.90;;;;;;5044846;28;20413;-67
2023/10/23 04:04:05;;;;;;;1999.90;999.90;;;6.90;99.90;;;;;;5044432;28;20061;-67
2023/10/23 04:06:31;;;;;;;1999.90;999.90;;;6.90;99.90;;;;;;5048921;28;20335;-68
2023/10/23 04:08:57;;;;;;;1999.90;999.90;;;6.80;99.90;;;;;;5042670;28;20026;-67
2023/10/23 04:11:23;;;;;;;1999.90;999.90;;;6.80;99.90;;;;;;5051026;28;20021;-67
2023/10/23 04:13:49;;;;;;;1999.90;999.90;;;6.90;99.90;;;;;;5049255;28;20025;-67
2023/10/23 04:16:15;;;;;;;1999.90;999.90;;;6.90;99.90;;;;;;5055921;28;20037;-68
2023/10/23 04:18:42;;;;;;;1999.90;999.90;;;6.90;99.90;;;;;;5054336;28;20032;-67
2023/10/23 04:21:09;;;;;;;1999.90;999.90;;;6.90;99.90;;;;;;5056638;28;20028;-66
2023/10/23 04:23:37;;;;;;;1999.90;999.90;;;6.90;99.90;;;;;;5056848;28;20025;-78
2023/10/23 04:26:03;;;;;;;1999.90;999.90;;;6.80;99.90;;;;;;5056224;28;20037;-67
2023/10/23 04:28:32;;;;;;;1999.90;999.90;;;6.80;99.90;;;;;;5054207;28;20025;-67
2023/10/23 04:30:58;;;;;;;1999.90;999.90;;;6.90;99.90;;;;;;5057501;28;20041;-75
2023/10/23 04:33:25;;;;;;;1999.90;999.90;;;6.90;99.90;;;;;;5057267;28;20038;-67
2023/10/23 04:35:51;;;;;;;1999.90;999.90;;;6.80;99.90;;;;;;5057064;28;20321;-67
2023/10/23 04:38:16;;;;;;;1999.90;999.90;;;6.80;99.90;;;;;;5043656;28;20421;-67
2023/10/23 04:40:44;;;;;;;1999.90;999.90;;;6.80;99.90;;;;;;5056810;28;20111;-67
2023/10/23 04:43:10;;;;;;;1999.90;999.90;;;6.90;99.90;;;;;;5057099;28;20025;-67
2023/10/23 04:45:36;;;;;;;1999.90;999.90;;;6.90;99.90;;;;;;5054291;28;20514;-67
2023/10/23 04:48:02;;;;;;;1999.90;999.90;;;6.80;99.90;;;;;;5044205;28;20108;-67
2023/10/23 04:50:31;;;;;;;1999.90;999.90;;;6.70;99.90;;;;;;5054503;28;20052;-68
2023/10/23 04:52:59;;;;;;;1999.90;999.90;;;6.70;99.90;;;;;;5050952;28;20362;-67
2023/10/23 04:55:25;;;;;;;1999.90;999.90;;;6.80;99.90;;;;;;5052489;28;20026;-67
2023/10/23 04:57:52;;;;;;;1999.90;999.90;;;6.80;99.90;;;;;;5046778;28;20356;-68
2023/10/23 05:00:19;;;;;;;1999.90;999.90;;;6.90;99.90;;;;;;5053303;28;20036;-67
2023/10/23 05:02:48;;;;;;;1999.90;999.90;;;6.90;99.90;;;;;;5048907;28;20056;-78
2023/10/23 05:05:14;;;;;;;1999.90;999.90;;;6.90;99.90;;;;;;5049446;28;20025;-74
2023/10/23 05:07:39;;;;;;;1999.90;999.90;;;6.90;99.90;;;;;;5048106;28;20079;-67
2023/10/23 05:10:11;;;;;;;1999.90;999.90;;;7.00;99.90;;;;;;5047483;28;20024;-66
2023/10/23 05:12:37;;;;;;;1999.90;999.90;;;7.00;99.90;;;;;;5049043;28;20028;-66
2023/10/23 05:15:04;;;;;;;1999.90;999.90;;;7.00;99.90;;;;;;5054593;28;20032;-67
2023/10/23 05:17:30;;;;;;;1999.90;999.90;;;7.10;99.90;;;;;;5056903;28;20311;-67
2023/10/23 05:19:56;;;;;;;1999.90;999.90;;;7.20;99.90;;;;;;5052003;28;20111;-67
2023/10/23 05:22:22;;;;;;;1999.90;999.90;;;7.30;99.90;;;;;;5051862;28;20064;-68
2023/10/23 05:24:48;;;;;;;1999.90;999.90;;;7.40;99.90;;;;;;5054494;28;20412;-66
2023/10/23 05:27:15;;;;;;;1999.90;999.90;;;7.50;99.90;;;;;;5049545;28;20030;-67
2023/10/23 05:29:41;;;;;;;1999.90;999.90;;;7.50;99.90;;;;;;5055615;28;20067;-67
2023/10/23 05:32:07;;;;;;;1999.90;999.90;;;7.60;99.90;;;;;;5053745;28;20060;-67
2023/10/23 05:34:33;;;;;;;1999.90;999.90;;;7.60;99.90;;;;;;5051297;28;20442;-67
2023/10/23 05:36:59;;;;;;;1999.90;999.90;;;7.60;99.90;;;;;;5055845;28;20105;-68
2023/10/23 05:39:26;;;;;;;1999.90;999.90;;;7.60;99.90;;;;;;5049663;28;20407;-78
2023/10/23 05:41:52;;;;;;;1999.90;999.90;;;7.70;99.90;;;;;;5045844;28;20070;-67
2023/10/23 05:44:18;;;;;;;1999.90;999.90;;;7.70;99.90;;;;;;5050521;28;20418;-67
2023/10/23 05:46:44;;;;;;;1999.90;999.90;;;7.70;99.90;;;;;;5055325;28;20040;-67
2023/10/23 05:49:09;;;;;;;1999.90;999.90;;;7.70;99.90;;;;;;5048636;28;20029;-69
2023/10/23 05:51:35;;;;;;;1999.90;999.90;;;7.80;99.90;;;;;;5048227;28;20059;-77
2023/10/23 05:54:02;;;;;;;1999.90;999.90;;;7.80;99.90;;;;;;5051727;28;20032;-67
2023/10/23 05:56:29;;;;;;;1999.90;999.90;;;7.80;99.90;;;;;;5052332;28;20439;-78
2023/10/23 05:58:55;;;;;;;1999.90;999.90;;;7.90;99.90;;;;;;5055574;28;20037;-67
2023/10/23 06:01:21;;;;;;;1999.90;999.90;;;7.90;99.90;;;;;;5054447;28;20025;-68
2023/10/23 06:03:47;;;;;;;1999.90;999.90;;;8.00;99.90;;;;;;5049491;28;20029;-78
2023/10/23 06:06:13;;;;;;;1999.90;999.90;;;8.10;99.90;;;;;;5053626;28;20371;-68
2023/10/23 06:08:39;;;;;;;1999.90;999.90;;;8.10;99.90;;;;;;5052224;28;20091;-69
2023/10/23 06:11:11;;;;;;;1999.90;999.90;;;8.10;99.90;;;;;;5057040;28;20032;-67
2023/10/23 06:13:37;;;;;;;1999.90;999.90;;;8.20;99.90;;;;;;5053227;28;20033;-68
2023/10/23 06:16:04;;;;;;;1999.90;999.90;;;8.20;99.90;;;;;;5048617;28;20032;-67
2023/10/23 06:18:37;;;;;;;1999.90;999.90;;;8.20;99.90;;;;;;5046590;28;20031;-67
2023/10/23 06:21:06;;;;;;;1999.90;999.90;;;8.20;99.90;;;;;;5055183;28;20618;-68
2023/10/23 06:23:34;;;;;;;1999.90;999.90;;;8.20;99.90;;;;;;5048596;28;20025;-67
2023/10/23 06:26:00;;;;;;;1999.90;999.90;;;8.20;99.90;;;;;;5053768;28;20025;-67
2023/10/23 06:28:27;;;;;;;1999.90;999.90;;;8.20;99.90;;;;;;5045201;28;20029;-79
2023/10/23 06:30:52;;;;;;;1999.90;999.90;;;8.10;99.90;;;;;;5052411;28;20060;-67
2023/10/23 06:33:18;;;;;;;1999.90;999.90;;;8.10;99.90;;;;;;5050982;28;20057;-67
2023/10/23 06:35:45;;;;;;;1999.90;999.90;;;8.10;99.90;;;;;;5047078;28;20017;-68
2023/10/23 06:38:11;;;;;;;1999.90;999.90;;;8.10;99.90;;;;;;5046650;28;20262;-68
2023/10/23 06:40:36;;;;;;;1999.90;999.90;;;8.10;99.90;;;;;;5046420;28;20100;-67
2023/10/23 06:43:02;;;;;;;1999.90;999.90;;;8.10;99.90;;;;;;5051207;28;20155;-67
2023/10/23 06:45:28;;;;;;;1999.90;999.90;;;8.00;99.90;;;;;;5050344;28;20078;-67
2023/10/23 06:47:54;;;;;;;1999.90;999.90;;;8.00;99.90;;;;;;5047416;28;20491;-67
2023/10/23 06:50:20;;;;;;;1999.90;999.90;;;8.00;99.90;;;;;;5046535;28;20047;-67
2023/10/23 06:52:46;;;;;;;1999.90;999.90;;;7.90;99.90;;;;;;5052289;28;20035;-67
2023/10/23 06:55:12;;;;;;;1999.90;999.90;;;8.10;99.90;;;;;;5049461;28;20025;-68
2023/10/23 06:57:38;;;;;;;1999.90;999.90;;;8.10;99.90;;;;;;5050561;28;20655;-67
2023/10/23 07:00:06;;;;;;;1999.90;999.90;;;8.10;99.90;;;;;;5049095;28;20024;-78
2023/10/23 07:02:32;;;;;;;1999.90;999.90;;;8.10;99.90;;;;;;5051580;28;20025;-67
2023/10/23 07:04:58;;;;;;;1999.90;999.90;;;8.10;99.90;;;;;;5045462;28;20037;-67
2023/10/23 07:07:24;;;;;;;1999.90;999.90;;;8.10;99.90;;;;;;5052269;28;20451;-67
2023/10/23 07:09:53;;;;;;;1999.90;999.90;;;8.10;99.90;;;;;;5045562;28;20100;-67
2023/10/23 07:12:19;;;;;;;1999.90;999.90;;;8.10;99.90;;;;;;5052851;28;20021;-67
2023/10/23 07:14:45;;;;;;;1999.90;999.90;;;8.10;99.90;;;;;;5050690;28;20064;-67
2023/10/23 07:17:11;;;;;;;1999.90;999.90;;;8.00;99.90;;;;;;5053508;28;20482;-67
2023/10/23 07:19:36;;;;;;;1999.90;999.90;;;8.00;99.90;;;;;;5054081;28;20104;-78
2023/10/23 07:22:03;;;;;;;1999.90;999.90;;;8.10;99.90;;;;;;5050268;28;20100;-67
2023/10/23 07:24:29;;;;;;;1999.90;999.90;;;8.20;99.90;;;;;;5047237;28;20427;-67
2023/10/23 07:26:55;;;;;;;1999.90;999.90;;;8.30;99.90;;;;;;5046961;28;20093;-67
2023/10/23 07:29:20;;;;;;;1999.90;999.90;;;8.40;99.90;;;;;;5050768;28;20052;-68
2023/10/23 07:31:46;;;;;;;1999.90;999.90;;;8.40;99.90;;;;;;5041851;28;20441;-67
2023/10/23 07:34:12;;;;;;;1999.90;999.90;;;8.30;99.90;;;;;;5043457;28;20094;-68
2023/10/23 07:36:39;;;;;;;1999.90;999.90;;;8.30;99.90;;;;;;5051276;28;20070;-78
2023/10/23 07:39:05;;;;;;;;;;;8.30;99.90;;;;;;5047169;28;20028;-67
2023/10/23 07:41:31;;;;;;;1999.90;999.90;;;8.30;99.90;;;;;;5051692;28;19916;-67
2023/10/23 07:43:57;;;;;;;1999.90;999.90;;;8.30;99.90;;;;;;5044752;28;20037;-67
2023/10/23 07:46:22;;;;;;;1999.90;999.90;;;8.40;99.90;;;;;;5050644;28;20025;-67
2023/10/23 07:48:48;;;;;;;1999.90;999.90;;;8.40;99.90;;;;;;5047870;28;20497;-78
2023/10/23 07:51:14;;;;;;;1999.90;999.90;;;8.50;99.90;;;;;;5053405;28;20051;-68
2023/10/23 07:53:40;;;;;;;1999.90;999.90;;;8.60;99.90;;;;;;5054369;28;20029;-75
2023/10/23 07:56:06;;;;;;;1999.90;999.90;;;8.50;99.90;;;;;;5050055;28;20034;-67
2023/10/23 07:58:32;;;;;;;1999.90;999.90;;;8.60;99.90;;;;;;5051639;28;20028;-67
2023/10/23 08:01:09;;;;;;;1999.90;999.90;;;8.70;99.90;;;;;;5052067;28;20408;-67
2023/10/23 08:03:35;;;;;;;1999.90;999.90;;;8.60;99.90;;;;;;5049466;28;20024;-75
2023/10/23 08:06:03;;;;;;;1999.90;999.90;;;8.70;99.90;;;;;;5049150;28;20324;-67
2023/10/23 08:08:37;;;;;;;1999.90;999.90;;;8.60;99.90;;;;;;5042041;28;20119;-67
2023/10/23 08:11:05;;;;;;;1999.90;999.90;;;8.70;99.90;;;;;;5054336;28;20044;-68
2023/10/23 08:13:31;;;;;;;1999.90;999.90;;;8.80;99.90;;;;;;5049673;28;20025;-67
2023/10/23 08:15:57;;;;;;;1999.90;999.90;;;8.80;99.90;;;;;;5051960;28;20033;-67
2023/10/23 08:18:23;;;;;;;1999.90;999.90;;;8.70;99.90;;;;;;5052605;28;20044;-68
2023/10/23 08:20:48;;;;;;;1999.90;999.90;;;8.80;99.90;;;;;;5053155;28;20581;-68
2023/10/23 08:23:14;;;;;;;1999.90;999.90;;;8.90;99.90;;;;;;5058469;28;20414;-68
2023/10/23 08:25:44;;;;;;;1999.90;999.90;;;8.90;99.90;;;;;;5053440;28;20032;-67
2023/10/23 08:28:10;;;;;;;1999.90;999.90;;;8.90;99.90;;;;;;5059505;28;20090;-69
2023/10/23 08:30:37;;;;;;;1999.90;999.90;;;9.00;99.90;;;;;;5056394;28;20078;-78
2023/10/23 08:33:04;;;;;;;1999.90;999.90;;;9.00;99.90;;;;;;5058470;28;20029;-68
2023/10/23 08:35:31;;;;;;;1999.90;999.90;;;9.10;99.90;;;;;;5053495;28;20028;-68
2023/10/23 08:37:57;;;;;;;1999.90;999.90;;;9.10;99.90;;;;;;5050890;28;20037;-67
2023/10/23 08:40:23;;;;;;;1999.90;999.90;;;9.20;99.90;;;;;;5052252;28;20037;-68
2023/10/23 08:42:49;;;;;;;1999.90;999.90;;;9.20;99.90;;;;;;5052079;28;20021;-67
2023/10/23 08:45:16;;;;;;;1999.90;999.90;;;9.30;99.90;;;;;;5050473;28;20033;-68
2023/10/23 08:47:41;;;;;;;;;;;9.30;99.90;;;;;;5053179;28;20036;-78
2023/10/23 08:50:07;;;;;;;1999.90;999.90;;;9.40;99.90;;;;;;5051054;28;19921;-67
2023/10/23 08:52:45;;;;;;;1999.90;999.90;;;9.40;99.90;;;;;;5045395;28;20472;-68
2023/10/23 08:55:13;;;;;;;1999.90;999.90;;;9.40;99.90;;;;;;5044846;28;20036;-79
2023/10/23 08:57:51;;;;;;;1999.90;999.90;;;9.50;99.90;;;;;;5052927;28;20029;-67
2023/10/23 09:00:17;;;;;;;1999.90;999.90;;;9.60;99.90;;;;;;5060610;28;20063;-68
2023/10/23 09:02:43;;;;;;;1999.90;999.90;;;9.60;99.90;;;;;;5047658;28;20018;-67
2023/10/23 09:05:08;;;;;;;1999.90;999.90;;;9.70;99.90;;;;;;5048411;28;20094;-67
2023/10/23 09:07:35;;;;;;;1999.90;999.90;;;9.80;99.90;;;;;;5048142;28;20025;-67
2023/10/23 09:10:05;;;;;;;1999.90;999.90;;;9.80;99.90;;;;;;5046567;28;20040;-67
2023/10/23 09:12:35;;;;;;;1999.90;999.90;;;9.90;99.90;;;;;;5051465;28;20036;-68
2023/10/23 09:15:23;;;;;;;1999.90;999.90;;;10.00;99.90;;;;;;5044291;28;20031;-68
2023/10/23 09:17:49;;;;;;;1999.90;999.90;;;10.10;99.90;;;;;;5051016;28;20033;-67
2023/10/23 09:20:18;;;;;;;1999.90;999.90;;;10.20;99.90;;;;;;5046312;28;20439;-80
2023/10/23 09:22:48;;;;;;;1999.90;999.90;;;10.30;99.90;;;;;;5056411;28;20028;-68
2023/10/23 09:25:21;;;;;;;1999.90;999.90;;;10.30;99.90;;;;;;5055999;28;20021;-67
2023/10/23 09:27:47;;;;;;;1999.90;999.90;;;10.30;99.90;;;;;;5054967;28;20037;-81
2023/10/23 09:30:15;;;;;;;1999.90;999.90;;;10.40;99.90;;;;;;5055814;28;20100;-68
2023/10/23 09:32:41;;;;;;;1999.90;999.90;;;10.40;99.90;;;;;;5056204;28;20044;-68
2023/10/23 09:35:10;;;;;;;1999.90;999.90;;;10.50;99.90;;;;;;5049808;28;20029;-68
2023/10/23 09:37:39;;;;;;;1999.90;999.90;;;10.60;99.90;;;;;;5055552;28;20071;-67
2023/10/23 09:40:09;;;;;;;1999.90;999.90;;;10.70;99.90;;;;;;5055676;28;20025;-68
2023/10/23 09:42:35;;;;;;;1999.90;999.90;;;10.70;99.90;;;;;;5050962;28;20068;-68
2023/10/23 09:45:04;;;;;;;1999.90;999.90;;;10.70;99.90;;;;;;5055531;28;20433;-68
2023/10/23 09:47:30;;;;;;;1999.90;999.90;;;10.80;99.90;;;;;;5046160;28;20025;-68
2023/10/23 09:49:56;;;;;;;1999.90;999.90;;;10.90;99.90;;;;;;5053879;28;20507;-67
2023/10/23 09:52:26;;;;;;;1999.90;999.90;;;10.90;99.90;;;;;;5050813;28;20043;-68
2023/10/23 09:55:05;;;;;;;1999.90;999.90;;;11.00;99.90;;;;;;5046574;28;20400;-68
2023/10/23 09:57:38;;;;;;;1999.90;999.90;;;11.10;99.90;;;;;;5046282;28;20025;-67
2023/10/23 10:00:17;;;;;;;1999.90;999.90;;;11.10;99.90;;;;;;5042045;28;20032;-67
2023/10/23 10:02:52;;;;;;;1999.90;999.90;;;11.20;99.90;;;;;;5047647;28;20112;-68
2023/10/23 10:05:53;;;;;;;1999.90;999.90;;;11.20;99.90;;;;;;5039862;28;20036;-68
2023/10/23 10:08:21;;;;;;;1999.90;999.90;;;11.20;99.90;;;;;;5046683;28;20045;-78
2023/10/23 10:10:48;;;;;;;1999.90;999.90;;;11.20;99.90;;;;;;5043561;28;20030;-68
2023/10/23 10:13:15;;;;;;;1999.90;999.90;;;11.30;99.90;;;;;;5044832;28;20025;-68
2023/10/23 10:15:43;;;;;;;1999.90;999.90;;;11.30;99.90;;;;;;5054848;28;20032;-82
2023/10/23 10:18:10;;;;;;;1999.90;999.90;;;11.40;99.90;;;;;;5044790;28;20057;-68
2023/10/23 10:20:37;;;;;;;1999.90;999.90;;;11.40;99.90;;;;;;5042707;28;20030;-68
2023/10/23 10:23:11;;;;;;;1999.90;999.90;;;11.50;99.90;;;;;;5052481;28;20039;-73
2023/10/23 10:25:39;;;;;;;1999.90;999.90;;;11.60;99.90;;;;;;5040982;28;20033;-68
2023/10/23 10:28:06;;;;;;;1999.90;999.90;;;11.60;99.90;;;;;;5052164;28;20036;-68
2023/10/23 10:30:42;;;;;;;1999.90;999.90;;;11.60;99.90;;;;;;5046990;28;20037;-68
2023/10/23 10:33:19;;;;;;;1999.90;999.90;;;11.60;99.90;;;;;;5051925;28;20040;-68
2023/10/23 10:35:56;;;;;;;1999.90;999.90;;;11.60;99.90;;;;;;5046404;28;20040;-68
2023/10/23 10:38:23;;;;;;;1999.90;999.90;;;11.60;99.90;;;;;;5046776;28;20025;-69
2023/10/23 10:41:04;;;;;;;1999.90;999.90;;;11.70;99.90;;;;;;5050022;28;20021;-68
2023/10/23 10:43:31;;;;;;;1999.90;999.90;;;11.70;99.90;;;;;;5040238;28;20033;-69
2023/10/23 10:45:56;;;;;;;1999.90;999.90;;;11.70;99.90;;;;;;5047971;28;20021;-68
2023/10/23 10:48:24;;;;;;;1999.90;999.90;;;11.60;99.90;;;;;;5046323;28;20084;-68
2023/10/23 10:50:51;;;;;;;1999.90;999.90;;;11.70;99.90;;;;;;5049446;28;20127;-78
2023/10/23 10:53:17;;;;;;;;;;;11.70;99.90;;;;;;5046465;28;20022;-68
2023/10/23 10:55:47;;;;;;;1999.90;999.90;;;11.80;99.90;;;;;;5052394;28;19912;-68
2023/10/23 10:58:15;;;;;;;1999.90;999.90;;;11.80;99.90;;;;;;5047057;28;20336;-68
2023/10/23 11:00:40;;;;;;;1999.90;999.90;;;11.80;99.90;;;;;;5054061;28;20029;-69
2023/10/23 11:03:07;;;;;;;1999.90;999.90;;;11.80;99.90;;;;;;5045158;28;20116;-68
2023/10/23 11:05:33;;;;;;;1999.90;999.90;;;11.80;99.90;;;;;;5053353;28;20029;-68
2023/10/23 11:07:59;;;;;;;1999.90;999.90;;;11.80;99.90;;;;;;5049343;28;20037;-78
2023/10/23 11:10:25;;;;;;;1999.90;999.90;;;11.80;99.90;;;;;;5045112;28;20021;-69
2023/10/23 11:12:51;;;;;;;1999.90;999.90;;;11.80;99.90;;;;;;5050983;28;20144;-68
2023/10/23 11:15:17;;;;;;;1999.90;999.90;;;11.90;99.90;;;;;;5051992;28;20025;-68
2023/10/23 11:17:43;;;;;;;1999.90;999.90;;;11.90;99.90;;;;;;5054342;28;20028;-69
2023/10/23 11:20:13;;;;;;;1999.90;999.90;;;11.90;99.90;;;;;;5052265;28;20331;-68
2023/10/23 11:22:47;;;;;;;1999.90;999.90;;;12.00;99.90;;;;;;5046353;28;20033;-68
2023/10/23 11:25:14;;;;;;;1999.90;999.90;;;12.00;99.90;;;;;;5052325;28;20039;-68
2023/10/23 11:27:40;;;;;;;1999.90;999.90;;;12.10;99.90;;;;;;5049376;28;20048;-68
2023/10/23 11:30:07;;;;;;;1999.90;999.90;;;12.10;99.90;;;;;;5047726;28;20062;-68
2023/10/23 11:32:33;;;;;;;;;;;12.10;99.90;;;;;;5044153;28;20060;-69
2023/10/23 11:35:05;;;;;;;1999.90;999.90;;;12.20;99.90;;;;;;5048014;28;19924;-68
2023/10/23 11:37:38;;;;;;;1999.90;999.90;;;12.30;99.90;;;;;;5043591;28;20030;-68
2023/10/23 11:40:06;;;;;;;1999.90;999.90;;;12.40;99.90;;;;;;5047885;28;20032;-68
2023/10/23 11:42:42;;;;;;;1999.90;999.90;;;12.40;99.90;;;;;;5046735;28;20022;-68
2023/10/23 11:45:09;;;;;;;1999.90;999.90;;;12.50;99.90;;;;;;5044268;28;20059;-68
2023/10/23 11:47:37;;;;;;;;;;;12.60;99.90;;;;;;5049188;28;20059;-68
2023/10/23 11:50:06;;;;;;;1999.90;999.90;;;12.60;99.90;;;;;;5047800;28;19917;-68
2023/10/23 11:52:33;;;;;;;1999.90;999.90;;;12.60;99.90;;;;;;5049800;28;20032;-68
2023/10/23 11:54:59;;;;;;;1999.90;999.90;;;12.70;99.90;;;;;;5039592;28;20111;-84
2023/10/23 11:57:24;;;;;;;1999.90;999.90;;;12.70;99.90;;;;;;5043240;28;20052;-68
2023/10/23 11:59:50;;;;;;;1999.90;999.90;;;12.70;99.90;;;;;;5045506;28;20021;-68
2023/10/23 12:02:16;;;;;;;1999.90;999.90;;;12.70;99.90;;;;;;5048221;28;20066;-68
2023/10/23 12:04:42;;;;;;;1999.90;999.90;;;12.70;99.90;;;;;;5040941;28;20325;-69
2023/10/23 12:07:08;;;;;;;1999.90;999.90;;;12.70;99.90;;;;;;5049036;28;20036;-68